createdAt,value
2023-02-16T00:00:37.806Z,34.63
2023-02-16T00:05:39.347Z,32.90
2023-02-16T00:10:41.345Z,35.65
2023-02-16T00:15:43.150Z,34.60
2023-02-16T00:20:45.213Z,37.20
2023-02-16T00:25:46.622Z,35.10
2023-02-16T00:30:50.073Z,35.05
2023-02-16T00:35:51.502Z,34.28
2023-02-16T00:40:52.830Z,35.47
2023-02-16T00:45:54.839Z,34.95
2023-02-16T00:50:56.356Z,34.97
2023-02-16T00:55:57.737Z,33.60
2023-02-16T01:01:06.602Z,34.97
2023-02-16T01:06:27.197Z,34.33
2023-02-16T01:11:29.423Z,36.00
2023-02-16T01:16:38.048Z,31.40
2023-02-16T01:21:39.606Z,32.08
2023-02-16T01:26:45.821Z,35.78
2023-02-16T01:31:47.707Z,35.97
2023-02-16T01:36:49.317Z,36.25
2023-02-16T01:42:05.831Z,37.63
2023-02-16T01:47:18.193Z,37.38
2023-02-16T01:52:31.157Z,36.75
2023-02-16T01:57:41.581Z,36.20
2023-02-16T02:02:49.276Z,36.70
2023-02-16T02:08:00.646Z,34.92
2023-02-16T02:13:18.436Z,36.30
2023-02-16T02:18:19.813Z,35.05
2023-02-16T02:23:33.719Z,39.85
2023-02-16T02:29:05.097Z,34.85
2023-02-16T02:34:40.268Z,39.63
2023-02-16T02:40:16.971Z,37.58
2023-02-16T02:45:32.576Z,37.90
2023-02-16T02:51:29.792Z,36.78
2023-02-16T02:56:50.416Z,38.50
2023-02-16T03:01:57.195Z,38.63
2023-02-16T03:07:01.133Z,41.30
2023-02-16T03:12:43.903Z,37.88
2023-02-16T03:18:04.711Z,38.38
2023-02-16T03:23:26.555Z,38.65
2023-02-16T03:28:50.217Z,36.53
2023-02-16T03:33:54.581Z,35.85
2023-02-16T03:38:57.269Z,35.22
2023-02-16T03:43:58.714Z,31.75
2023-02-16T03:49:00.072Z,29.88
2023-02-16T03:54:01.438Z,30.05
2023-02-16T03:59:03.393Z,31.38
2023-02-16T04:04:05.100Z,30.73
2023-02-16T04:09:06.568Z,30.42
2023-02-16T04:14:07.929Z,32.75
2023-02-16T04:19:09.424Z,34.97
2023-02-16T04:24:10.762Z,28.52
2023-02-16T04:29:12.125Z,27.45
2023-02-16T04:34:13.829Z,29.73
2023-02-16T04:39:15.528Z,28.25
2023-02-16T04:44:16.960Z,28.05
2023-02-16T04:49:18.852Z,27.60
2023-02-16T04:54:20.263Z,26.70
2023-02-16T04:59:22.792Z,29.55
2023-02-16T05:04:24.795Z,27.75
2023-02-16T05:09:26.294Z,27.52
2023-02-16T05:14:42.961Z,26.85
2023-02-16T05:19:46.670Z,25.75
2023-02-16T05:24:48.968Z,28.02
2023-02-16T05:29:50.776Z,28.30
2023-02-16T05:34:52.124Z,28.35
2023-02-16T05:39:53.425Z,28.08
2023-02-16T05:44:54.847Z,27.83
2023-02-16T05:49:56.225Z,27.60
2023-02-16T05:54:57.544Z,29.15
2023-02-16T05:59:58.928Z,29.33
2023-02-16T06:05:00.289Z,26.67
2023-02-16T06:10:01.678Z,28.42
2023-02-16T06:15:04.013Z,29.05
2023-02-16T06:20:06.083Z,28.00
2023-02-16T06:25:07.583Z,24.60
2023-02-16T06:30:09.255Z,27.20
2023-02-16T06:35:10.688Z,28.00
2023-02-16T06:40:16.227Z,27.08
2023-02-16T06:45:17.876Z,27.38
2023-02-16T06:50:19.369Z,26.85
2023-02-16T06:55:20.754Z,26.63
2023-02-16T07:00:22.434Z,28.48
2023-02-16T07:05:23.935Z,27.38
2023-02-16T07:10:25.246Z,29.85
2023-02-16T07:15:26.663Z,29.05
2023-02-16T07:20:28.200Z,27.92
2023-02-16T07:25:29.791Z,25.88
2023-02-16T07:30:31.497Z,27.92
2023-02-16T07:35:33.985Z,25.85
2023-02-16T07:40:36.367Z,25.77
2023-02-16T07:45:37.828Z,25.33
2023-02-16T07:50:39.202Z,23.38
2023-02-16T07:55:44.212Z,23.50
2023-02-16T08:00:45.534Z,22.73
2023-02-16T08:05:46.846Z,21.27
2023-02-16T08:10:48.240Z,21.08
2023-02-16T08:15:50.179Z,21.10
2023-02-16T08:21:03.750Z,20.70
2023-02-16T08:26:11.314Z,23.50
2023-02-16T08:31:18.808Z,22.77
2023-02-16T08:36:26.492Z,19.80
2023-02-16T08:41:36.737Z,21.27
2023-02-16T08:46:40.533Z,21.48
2023-02-16T08:51:47.424Z,23.15
2023-02-16T08:56:49.568Z,22.38
2023-02-16T09:01:52.347Z,22.27
2023-02-16T09:06:53.839Z,20.02
2023-02-16T09:11:55.488Z,22.50
2023-02-16T09:16:58.183Z,24.85
2023-02-16T09:21:59.628Z,24.58
2023-02-16T09:27:01.595Z,24.80
2023-02-16T09:32:03.347Z,22.40
2023-02-16T09:37:04.751Z,23.13
2023-02-16T09:42:39.806Z,24.67
2023-02-16T09:47:47.607Z,25.88
2023-02-16T09:53:00.591Z,23.83
2023-02-16T09:58:14.683Z,26.15
2023-02-16T10:03:38.041Z,25.50
2023-02-16T10:08:43.667Z,26.13
2023-02-16T10:13:54.087Z,25.33
2023-02-16T10:18:57.122Z,23.67
2023-02-16T10:24:02.762Z,25.33
2023-02-16T10:29:19.013Z,23.42
2023-02-16T10:34:38.830Z,26.38
2023-02-16T10:39:53.157Z,26.33
2023-02-16T10:45:17.945Z,25.47
2023-02-16T10:50:30.209Z,27.00
2023-02-16T10:55:31.552Z,27.20
2023-02-16T11:00:58.525Z,26.45
2023-02-16T11:06:16.413Z,23.17
2023-02-16T11:11:19.409Z,23.83
2023-02-16T11:16:24.381Z,24.25
2023-02-16T11:21:50.449Z,25.38
2023-02-16T11:27:19.492Z,23.35
2023-02-16T11:32:22.212Z,23.83
2023-02-16T11:37:31.829Z,26.92
2023-02-16T11:42:40.323Z,25.60
2023-02-16T11:47:43.064Z,24.50
2023-02-16T11:52:47.029Z,33.30
2023-02-16T11:57:49.026Z,25.53
2023-02-16T12:03:18.999Z,24.38
2023-02-16T12:08:27.738Z,24.77
2023-02-16T12:13:36.482Z,26.13
2023-02-16T12:19:11.167Z,25.05
2023-02-16T12:24:24.327Z,25.02
2023-02-16T12:30:03.709Z,25.83
2023-02-16T12:35:19.098Z,27.38
2023-02-16T12:40:51.940Z,25.42
2023-02-16T12:45:57.730Z,26.05
2023-02-16T12:51:03.270Z,26.25
2023-02-16T12:56:12.478Z,27.70
2023-02-16T13:01:20.398Z,27.73
2023-02-16T13:07:06.239Z,28.27
2023-02-16T13:12:43.114Z,27.02
2023-02-16T13:17:50.497Z,27.75
2023-02-16T13:23:24.070Z,26.30
2023-02-16T13:28:31.546Z,29.77
2023-02-16T13:33:51.493Z,28.98
2023-02-16T13:39:20.741Z,29.17
2023-02-16T13:44:36.374Z,28.73
2023-02-16T13:49:43.138Z,29.85
2023-02-16T13:54:50.041Z,29.30
2023-02-16T14:00:00.536Z,29.75
2023-02-16T14:05:09.886Z,28.83
2023-02-16T14:10:14.590Z,28.30
2023-02-16T14:15:20.684Z,28.23
2023-02-16T14:20:21.962Z,27.65
2023-02-16T14:25:23.358Z,29.38
2023-02-16T14:30:51.926Z,27.65
2023-02-16T14:35:59.111Z,26.90
2023-02-16T14:41:03.403Z,27.58
2023-02-16T14:46:28.814Z,27.45
2023-02-16T14:51:50.752Z,28.20
2023-02-16T14:56:56.935Z,26.63
2023-02-16T15:01:59.051Z,27.02
2023-02-16T15:07:04.748Z,26.45
2023-02-16T15:12:23.771Z,25.92
2023-02-16T15:17:30.140Z,27.95
2023-02-16T15:22:31.854Z,26.85
2023-02-16T15:27:33.893Z,27.15
2023-02-16T15:32:35.765Z,27.00
2023-02-16T15:37:39.997Z,28.02
2023-02-16T15:42:44.632Z,26.92
2023-02-16T15:47:46.932Z,26.52
2023-02-16T15:52:48.506Z,26.08
2023-02-16T15:57:51.166Z,27.58
2023-02-16T16:02:55.897Z,26.00
2023-02-16T16:07:59.347Z,26.00
2023-02-16T16:13:08.831Z,24.15
2023-02-16T16:18:44.611Z,26.60
2023-02-16T16:23:56.654Z,26.17
2023-02-16T16:28:58.105Z,27.90
2023-02-16T16:34:02.372Z,30.10
2023-02-16T16:39:17.209Z,30.02
2023-02-16T16:44:34.666Z,28.38
2023-02-16T16:49:36.111Z,26.58
2023-02-16T16:54:39.496Z,27.15
2023-02-16T16:59:40.864Z,26.80
2023-02-16T17:04:42.241Z,27.05
2023-02-16T17:09:43.694Z,26.38
2023-02-16T17:14:44.968Z,25.33
2023-02-16T17:19:46.392Z,26.65
2023-02-16T17:24:47.837Z,27.77
2023-02-16T17:29:49.173Z,26.35
2023-02-16T17:34:50.487Z,28.02
2023-02-16T17:39:51.830Z,26.60
2023-02-16T17:44:53.150Z,26.65
2023-02-16T17:49:54.545Z,26.27
2023-02-16T17:54:55.839Z,27.48
2023-02-16T17:59:57.677Z,27.45
2023-02-16T18:04:59.081Z,26.48
2023-02-16T18:10:00.997Z,29.73
2023-02-16T18:15:02.337Z,29.52
2023-02-16T18:20:05.013Z,31.25
2023-02-16T18:25:06.580Z,29.13
2023-02-16T18:30:10.156Z,27.67
2023-02-16T18:35:13.995Z,26.98
2023-02-16T18:40:19.755Z,26.55
2023-02-16T18:45:21.214Z,27.58
2023-02-16T18:50:22.637Z,26.40
2023-02-16T18:55:24.451Z,28.70
2023-02-16T19:00:26.051Z,27.98
2023-02-16T19:05:27.663Z,28.40
2023-02-16T19:10:29.887Z,28.60
2023-02-16T19:15:33.105Z,26.58
2023-02-16T19:20:35.331Z,28.50
2023-02-16T19:25:36.738Z,28.35
2023-02-16T19:30:38.204Z,27.83
2023-02-16T19:35:39.605Z,28.35
2023-02-16T19:40:40.952Z,26.20
2023-02-16T19:45:42.938Z,26.50
2023-02-16T19:50:45.423Z,25.52
2023-02-16T19:55:48.306Z,27.73
2023-02-16T20:00:49.875Z,27.77
2023-02-16T20:05:51.286Z,26.58
2023-02-16T20:10:52.796Z,26.38
2023-02-16T20:15:54.168Z,28.42
2023-02-16T20:21:03.755Z,25.45
2023-02-16T20:26:08.172Z,25.90
2023-02-16T20:31:17.379Z,27.60
2023-02-16T20:36:19.966Z,26.90
2023-02-16T20:41:21.616Z,27.73
2023-02-16T20:46:23.829Z,26.83
2023-02-16T20:51:25.443Z,25.75
2023-02-16T20:56:28.160Z,25.70
2023-02-16T21:01:38.858Z,27.00
2023-02-16T21:06:40.291Z,27.15
2023-02-16T21:11:42.228Z,25.48
2023-02-16T21:16:43.617Z,26.20
2023-02-16T21:21:45.032Z,25.17
2023-02-16T21:26:46.403Z,25.95
2023-02-16T21:31:47.878Z,28.17
2023-02-16T21:36:49.469Z,25.90
2023-02-16T21:41:50.813Z,26.70
2023-02-16T21:46:52.169Z,26.40
2023-02-16T21:51:53.512Z,25.92
2023-02-16T21:56:54.894Z,27.25
2023-02-16T22:01:56.336Z,26.25
2023-02-16T22:06:57.685Z,28.55
2023-02-16T22:11:59.071Z,25.48
2023-02-16T22:17:04.469Z,24.60
2023-02-16T22:22:05.946Z,25.40
2023-02-16T22:27:07.331Z,23.10
2023-02-16T22:32:12.050Z,23.20
2023-02-16T22:37:13.494Z,22.63
2023-02-16T22:42:14.800Z,21.50
2023-02-16T22:47:16.252Z,23.60
2023-02-16T22:52:17.707Z,24.15
2023-02-16T22:57:19.104Z,22.35
2023-02-16T23:02:20.457Z,23.27
2023-02-16T23:07:21.775Z,23.75
2023-02-16T23:12:23.346Z,22.45
2023-02-16T23:17:24.758Z,23.10
2023-02-16T23:22:26.165Z,21.75
2023-02-16T23:27:27.644Z,23.20
2023-02-16T23:32:29.040Z,21.83
2023-02-16T23:37:31.423Z,20.13
2023-02-16T23:42:32.965Z,21.42
2023-02-16T23:47:34.326Z,19.92
2023-02-16T23:52:35.658Z,19.50
2023-02-16T23:57:37.062Z,18.88
